ADDS METAR Data INFO
IDs: Format: Raw Decoded Include TAF

Data at: 0428 UTC 28 Jul 2017

KDUX 280415Z AUTO 09005KT 10SM CLR 23/19 A3010 RMK AO2 T02310188
KDUX 280355Z AUTO 10004KT 10SM CLR 23/19 A3011 RMK AO2 T02310190
KDUX 280335Z AUTO 11005KT 10SM SCT100 SCT120 23/19 A3011 RMK AO2 T02330188
KDUX 280315Z AUTO 10007KT 10SM SCT100 SCT120 24/19 A3011 RMK AO2 T02390187
KDUX 280255Z AUTO 09006KT 10SM CLR 24/19 A3011 RMK AO2 T02400188
KDUX 280235Z AUTO 09008KT 10SM CLR 25/19 A3011 RMK AO2 T02450187
KDUX 280215Z AUTO 08008KT 10SM CLR 25/19 A3010 RMK AO2 T02460188
KDUX 280155Z AUTO 07010G14KT 10SM CLR 25/19 A3009 RMK AO2 T02480189
KDUX 280135Z AUTO 08011KT 10SM CLR 26/19 A3008 RMK AO2 T02590186
KDUX 280115Z AUTO 05010G14KT 10SM CLR 27/19 A3008 RMK AO2 T02710190
KDUX 280055Z AUTO 05008G14KT 10SM CLR 28/19 A3008 RMK AO2 T02760188
KDUX 280035Z AUTO 04007KT 10SM CLR 28/19 A3007 RMK AO2 T02820191
KDUX 280015Z AUTO 04006KT 10SM CLR 29/18 A3007 RMK AO2 T02870184
KDUX 272355Z AUTO 03003KT 10SM CLR 29/17 A3007 RMK AO2 T02870174 10296 20257
KDUX 272335Z AUTO 36004KT 10SM CLR 29/18 A3008 RMK AO2 T02870176
KDUX 272315Z AUTO 00000KT 10SM CLR 29/18 A3008 RMK AO2 T02860180
KDUX 272255Z AUTO 05004KT 10SM CLR 29/18 A3009 RMK AO2 T02860180
KDUX 272235Z AUTO 02003KT 10SM SCT049 28/18 A3009 RMK AO2 T02840181
KDUX 272215Z AUTO 00000KT 10SM SCT042 BKN047 28/18 A3009 RMK AO2 T02790183
KDUX 272155Z AUTO 05006KT 10SM SCT042 SCT049 29/19 A3010 RMK AO2 T02940186
KDUX 272135Z AUTO 01006KT 10SM SCT042 29/19 A3011 RMK AO2 T02850185
KDUX 272115Z AUTO 00000KT 10SM CLR 28/18 A3012 RMK AO2 T02830184
KDUX 272055Z AUTO 00000KT 10SM SCT033 SCT041 28/18 A3013 RMK AO2 T02760176
KDUX 272035Z AUTO 04004KT 10SM BKN031 BKN041 27/19 A3014 RMK AO2 T02740191
KDUX 272015Z AUTO 03003KT 10SM SCT029 27/19 A3015 RMK AO2 T02710188
KDUX 271955Z AUTO 03005KT 10SM SCT029 27/19 A3015 RMK AO2 T02670191
KDUX 271935Z AUTO 01006KT 10SM SCT038 SCT070 27/19 A3016 RMK AO2 T02670192
KDUX 271915Z AUTO 35010G14KT 10SM SCT033 BKN040 BKN090 27/19 A3017 RMK AO2 T02660190
KDUX 271855Z AUTO 35004KT 10SM SCT037 SCT045 SCT055 27/19 A3017 RMK AO2 T02680185
KDUX 271835Z AUTO 34005KT 10SM SCT033 BKN042 BKN050 26/19 A3018 RMK AO2 T02610188
KDUX 271815Z AUTO 00000KT 10SM CLR 26/18 A3019 RMK AO2 T02630182
KDUX 271755Z AUTO 00000KT 10SM SCT026 26/18 A3019 RMK AO2 T02580184 10262 20200
KDUX 271735Z AUTO 12003KT 10SM CLR 25/19 A3019 RMK AO2 T02540185
KDUX 271715Z AUTO 10005KT 10SM CLR 26/19 A3018 RMK AO2 T02570189
KDUX 271655Z AUTO 07007KT 10SM CLR 25/19 A3018 RMK AO2 T02480186
KDUX 271635Z AUTO 07006KT 10SM CLR 24/19 A3018 RMK AO2 T02390186
KDUX 271615Z AUTO 04008KT 10SM CLR 24/18 A3019 RMK AO2 T02350182
KDUX 271555Z AUTO 04008KT 10SM CLR 23/18 A3019 RMK AO2 T02310183
KDUX 271535Z AUTO 01007KT 10SM SCT027 23/19 A3019 RMK AO2 T02310185
KDUX 271515Z AUTO 34009KT 10SM CLR 22/19 A3020 RMK AO2 T02230185
KDUX 271455Z AUTO 35010KT 10SM CLR 22/18 A3020 RMK AO2 T02180182
KDUX 271435Z AUTO 34012KT 10SM CLR 22/19 A3020 RMK AO2 T02170185
KDUX 271415Z AUTO 34011KT 10SM CLR 21/18 A3020 RMK AO2 T02100184
KDUX 271355Z AUTO 33010KT 10SM CLR 21/18 A3018 RMK AO2 T02050184
KDUX 271335Z AUTO 35010KT 10SM SCT110 20/18 A3018 RMK AO2 T02000182
KDUX 271315Z AUTO 34008KT 10SM BKN100 20/19 A3018 RMK AO2 T02000185
KDUX 271255Z AUTO 34014KT 10SM SCT100 20/19 A3017 RMK AO2 T02020187
KDUX 271235Z AUTO 35011KT 7SM CLR 21/20 A3016 RMK AO2 T02060195
KDUX 271215Z AUTO 34012KT 7SM CLR 21/20 A3015 RMK AO2 T02100195
KDUX 271155Z AUTO 34011KT 10SM CLR 21/19 A3015 RMK AO2 T02110192 10227 20208
KDUX 271135Z AUTO 33009KT 10SM CLR 21/18 A3015 RMK AO2 T02120183
KDUX 271115Z AUTO 31006KT 10SM CLR 21/18 A3014 RMK AO2 T02120176
KDUX 271055Z AUTO 31006KT 10SM CLR 22/17 A3014 RMK AO2 T02150172
KDUX 271035Z AUTO 29006KT 10SM CLR 22/17 A3014 RMK AO2 T02170174
KDUX 271015Z AUTO 27005KT 10SM CLR 22/18 A3014 RMK AO2 T02150176
KDUX 270955Z AUTO 00000KT 10SM CLR 21/18 A3015 RMK AO2 T02080178
KDUX 270935Z AUTO 32005KT 10SM CLR 22/17 A3014 RMK AO2 T02170172
KDUX 270915Z AUTO 31009KT 10SM CLR 22/17 A3014 RMK AO2 T02210169 PWINO
KDUX 270855Z AUTO 30010G24KT 10SM CLR 22/17 A3013 RMK AO2 T02190173 PWINO
KDUX 270835Z AUTO 35007KT 10SM CLR 22/18 A3012 RMK AO2 T02150181 PWINO
KDUX 270815Z AUTO 20010KT 10SM CLR 22/18 A3010 RMK AO2 T02150180 PWINO
KDUX 270755Z AUTO 22009KT 10SM CLR 22/18 A3011 RMK AO2 T02200179 PWINO
KDUX 270735Z AUTO 23006KT 10SM CLR 22/18 A3011 RMK AO2 T02230180 PWINO
KDUX 270715Z AUTO 21007KT 10SM CLR 22/18 A3010 RMK AO2 T02210181 PWINO
KDUX 270655Z AUTO 22013KT 10SM -DZ CLR 22/18 A3009 RMK AO2 T02200184
KDUX 270635Z AUTO 20012KT 10SM -RA SCT012 SCT019 22/18 A3008 RMK AO2 T02180182
KDUX 270615Z AUTO 21016KT 10SM -RA SCT012 SCT019 22/18 A3007 RMK AO2 T02220178
KDUX 270555Z AUTO 21015KT 10SM -RA BKN012 22/18 A3006 RMK AO2 T02240177 10318 20197 403740197
KDUX 270535Z AUTO 18015KT 10SM -RA SCT012 23/17 A3007 RMK AO2 T02290170
KDUX 270515Z AUTO 19013KT 10SM CLR 23/18 A3007 RMK AO2 T02260183
KDUX 270455Z AUTO 19015KT 10SM CLR 23/18 A3007 RMK AO2 T02310177
KDUX 270435Z AUTO 18013KT 10SM CLR 22/18 A3009 RMK AO2 T02150177
KDUX 270415Z AUTO 18015G23KT 10SM -RA SCT007 SCT014 20/19 A3010 RMK AO2 T01990189
KDUX 270355Z AUTO 14022G36KT 7SM RA BKN007 BKN014 20/19 A3009 RMK AO2 T02000189
KDUX 270335Z AUTO 17013KT 2SM +RA OVC007 21/20 A3018 RMK AO2 VIS 1 1/2V3 T02080195
KDUX 270315Z AUTO 05008G20KT 360V070 10SM RA SCT011 SCT021 OVC060 22/19 A3019 RMK AO2 T02190193
KDUX 270255Z AUTO 34019G30KT 10SM -RA SCT011 SCT050 BKN060 25/19 A3013 RMK AO2 T02470186
KDUX 270235Z AUTO 07003KT 10SM SCT090 27/17 A3007 RMK AO2 T02710168
KDUX 270215Z AUTO 19004KT 10SM SCT090 27/16 A3005 RMK AO2 T02740163
KDUX 270155Z AUTO 19007KT 10SM SCT090 28/16 A3003 RMK AO2 T02770163
KDUX 270135Z AUTO 19011KT 10SM CLR 28/17 A3002 RMK AO2 T02810165
KDUX 270115Z AUTO 17012KT 10SM CLR 29/16 A3002 RMK AO2 T02900157
KDUX 270055Z AUTO 18007KT 10SM CLR 30/16 A3002 RMK AO2 T02960160
KDUX 270035Z AUTO 18012KT 10SM CLR 31/16 A3002 RMK AO2 T03130164
KDUX 270015Z AUTO 10006KT 10SM CLR 31/17 A3001 RMK AO2 T03070168
KDUX 262355Z AUTO 14007KT 10SM CLR 32/16 A3001 RMK AO2 T03220164 10374 20310
KDUX 262335Z AUTO 15013KT 10SM SCT095 31/17 A3001 RMK AO2 T03100168
KDUX 262315Z AUTO 15018G25KT 10SM CLR 33/16 A3000 RMK AO2 T03340164
KDUX 262255Z AUTO 19006KT 10SM CLR 36/14 A2999 RMK AO2 T03640136
KDUX 262235Z AUTO 17007KT 10SM CLR 36/15 A3000 RMK AO2 T03550146
KDUX 262215Z AUTO 25004KT 10SM CLR 37/14 A3000 RMK AO2 T03680138
KDUX 262155Z AUTO 00000KT 10SM CLR 37/14 A3000 RMK AO2 T03690142
KDUX 262135Z AUTO 15005KT 10SM CLR 36/14 A3001 RMK AO2 T03640137
KDUX 262115Z AUTO 18004KT 10SM CLR 36/14 A3002 RMK AO2 T03600136
KDUX 262055Z AUTO 06003KT 10SM CLR 36/14 A3002 RMK AO2 T03610144
KDUX 262035Z AUTO 20003KT 10SM CLR 36/15 A3003 RMK AO2 T03630149
KDUX 262015Z AUTO 00000KT 10SM CLR 36/14 A3004 RMK AO2 T03560144
KDUX 261955Z AUTO 21003KT 10SM CLR 35/15 A3006 RMK AO2 T03540153
KDUX 261935Z AUTO 27005KT 10SM CLR 35/15 A3006 RMK AO2 T03450151
KDUX 261915Z AUTO 25007KT 10SM CLR 35/16 A3007 RMK AO2 T03520158
KDUX 261855Z AUTO 24007KT 10SM CLR 34/16 A3008 RMK AO2 T03430155
KDUX 261835Z AUTO 00000KT 10SM CLR 34/15 A3008 RMK AO2 T03370153
KDUX 261815Z AUTO 25009KT 10SM CLR 33/16 A3009 RMK AO2 T03270155
KDUX 261755Z AUTO 23005KT 10SM CLR 33/16 A3010 RMK AO2 T03330156 10334 20221
KDUX 261735Z AUTO 26009KT 10SM CLR 33/16 A3010 RMK AO2 T03280157
KDUX 261715Z AUTO 27011G14KT 10SM CLR 32/16 A3011 RMK AO2 T03220156
KDUX 261655Z AUTO 25010G14KT 10SM CLR 31/16 A3011 RMK AO2 T03130158
KDUX 261635Z AUTO 24010G16KT 10SM CLR 31/16 A3011 RMK AO2 T03110158